Time;durP1;ratioP1;P1;durP2;ratioP2;P2;SDS_P1;SDS_P2;PMS_P1;PMS_P2;Temp;Humidity;BMP_temperature;BMP_pressure;BME280_temperature;BME280_humidity;BME280_pressure;Samples;Min_cycle;Max_cycle;Signal;HPM_P1;HPM_P2
2022/11/07 00:02:00;;;;;;;9.00;4.25;;;;;;;10.25;93.91;100630.44;5050335;28;20037;-60
2022/11/07 00:04:28;;;;;;;9.50;4.68;;;;;;;10.25;94.22;100641.09;5052365;28;20037;-60
2022/11/07 00:06:53;;;;;;;7.25;4.38;;;;;;;10.25;94.18;100638.44;5050080;28;20048;-60
2022/11/07 00:09:19;;;;;;;11.43;4.70;;;;;;;10.24;93.93;100642.03;5042170;28;20037;-60
2022/11/07 00:11:44;;;;;;;9.90;4.60;;;;;;;10.13;94.49;100636.56;5050383;28;20033;-60
2022/11/07 00:14:15;;;;;;;9.88;4.32;;;;;;;10.17;94.67;100644.22;5052081;28;20035;-60
2022/11/07 00:16:41;;;;;;;9.25;4.20;;;;;;;10.06;94.68;100630.81;5051092;28;20530;-60
2022/11/07 00:19:07;;;;;;;7.55;4.45;;;;;;;10.08;94.79;100652.78;5044073;28;20032;-60
2022/11/07 00:21:32;;;;;;;11.05;4.70;;;;;;;10.08;94.59;100654.59;5042546;28;20128;-60
2022/11/07 00:23:59;;;;;;;8.45;4.68;;;;;;;10.02;95.31;100651.38;5033993;28;20112;-60
2022/11/07 00:26:24;;;;;;;9.15;4.55;;;;;;;10.04;95.25;100659.28;5046851;28;20032;-60
2022/11/07 00:28:52;;;;;;;7.63;4.38;;;;;;;10.00;95.29;100655.13;5032858;28;20084;-60
2022/11/07 00:31:18;;;;;;;8.07;4.50;;;;;;;9.97;95.44;100639.34;5035623;28;20043;-60
2022/11/07 00:33:44;;;;;;;8.75;4.40;;;;;;;10.02;95.46;100655.84;5048546;28;20104;-60
2022/11/07 00:36:22;;;;;;;14.65;4.18;;;;;;;10.02;95.36;100663.81;5042070;28;20032;-60
2022/11/07 00:38:47;;;;;;;9.93;4.60;;;;;;;10.00;95.26;100673.72;5040497;28;20028;-60
2022/11/07 00:41:13;;;;;;;8.75;4.50;;;;;;;9.94;95.47;100647.50;5051676;28;20044;-61
2022/11/07 00:43:39;;;;;;;9.18;5.18;;;;;;;10.01;95.21;100662.13;5045619;28;20033;-60
2022/11/07 00:46:06;;;;;;;8.85;4.60;;;;;;;9.93;95.44;100651.13;5033348;28;20057;-60
2022/11/07 00:48:35;;;;;;;8.32;4.30;;;;;;;9.93;95.87;100662.59;5031990;28;20477;-60
2022/11/07 00:51:16;;;;;;;7.72;4.25;;;;;;;9.92;95.84;100671.53;5039506;28;20102;-60
2022/11/07 00:53:42;;;;;;;10.90;4.43;;;;;;;9.93;95.32;100667.06;5032284;28;20052;-60
2022/11/07 00:56:14;;;;;;;8.38;4.40;;;;;;;9.92;95.60;100668.88;5037522;28;20029;-60
2022/11/07 00:58:41;;;;;;;9.50;4.85;;;;;;;9.86;95.89;100668.41;5043761;28;20503;-60
2022/11/07 01:01:16;;;;;;;10.40;4.35;;;;;;;9.90;95.93;100675.22;5032510;28;20029;-60
2022/11/07 01:06:32;;;;;;;9.85;5.32;;;;;;;9.92;95.92;100668.03;5051455;28;20510;-60
2022/11/07 01:08:58;;;;;;;14.10;4.93;;;;;;;9.93;95.77;100669.72;5044217;28;20022;-60
2022/11/07 01:11:25;;;;;;;9.35;4.65;;;;;;;9.87;96.56;100662.13;5031067;28;20040;-60
2022/11/07 01:13:58;;;;;;;8.80;4.82;;;;;;;9.89;96.84;100678.84;5049685;28;20029;-60
2022/11/07 01:16:25;;;;;;;8.70;4.88;;;;;;;9.89;96.67;100678.84;5047090;28;20079;-60
2022/11/07 01:18:51;;;;;;;9.93;4.80;;;;;;;9.90;96.55;100688.50;5040261;28;20051;-60
2022/11/07 01:21:19;;;;;;;10.35;5.43;;;;;;;9.84;96.97;100688.91;5043369;28;20036;-60
2022/11/07 01:23:44;;;;;;;7.00;4.63;;;;;;;9.93;96.83;100704.25;5035063;28;20053;-61
2022/11/07 01:26:11;;;;;;;13.55;5.32;;;;;;;9.96;96.70;100696.09;5030564;28;20064;-61
2022/11/07 01:28:38;;;;;;;13.20;5.05;;;;;;;9.99;96.94;100696.75;5033157;28;20049;-60
2022/11/07 01:31:06;;;;;;;7.80;4.20;;;;;;;9.97;96.36;100696.00;5030783;28;20021;-60
2022/11/07 01:33:35;;;;;;;8.43;4.78;;;;;;;10.07;96.01;100698.09;5016074;28;20029;-60
2022/11/07 01:36:07;;;;;;;9.70;4.75;;;;;;;10.02;96.73;100704.53;5036613;28;20037;-61
2022/11/07 01:38:40;;;;;;;12.25;4.95;;;;;;;10.05;96.36;100711.44;5044074;28;20076;-60
2022/11/07 01:41:21;;;;;;;11.32;5.00;;;;;;;10.08;96.57;100694.47;5031968;28;20021;-60
2022/11/07 01:44:22;;;;;;;8.93;4.45;;;;;;;10.08;96.66;100702.44;5029808;28;20039;-60
2022/11/07 01:46:50;;;;;;;9.73;5.25;;;;;;;10.09;96.90;100694.38;5041236;28;20507;-60
2022/11/07 01:49:18;;;;;;;12.10;5.38;;;;;;;10.10;96.79;100697.88;5032011;28;20373;-60
2022/11/07 01:51:44;;;;;;;7.55;4.80;;;;;;;10.14;96.69;100700.22;5046864;28;20020;-60
2022/11/07 01:54:10;;;;;;;10.23;4.65;;;;;;;10.15;96.86;100696.66;5045497;28;20025;-61
2022/11/07 01:56:40;;;;;;;8.57;4.38;;;;;;;10.15;96.89;100701.97;5039797;28;20373;-60
2022/11/07 01:59:14;;;;;;;12.50;5.10;;;;;;;10.17;96.94;100707.16;5043846;28;20091;-60
2022/11/07 02:01:43;;;;;;;13.02;5.07;;;;;;;10.15;97.14;100711.75;5033048;28;20045;-60
2022/11/07 02:04:11;;;;;;;11.15;4.68;;;;;;;10.15;96.89;100707.28;5029924;28;20025;-60
2022/11/07 02:06:45;;;;;;;9.63;4.82;;;;;;;10.15;96.99;100709.94;5031232;28;20515;-60
2022/11/07 02:09:11;;;;;;;9.60;4.50;;;;;;;10.14;97.38;100715.34;5043693;28;20055;-60
2022/11/07 02:11:37;;;;;;;10.85;4.22;;;;;;;10.11;97.07;100708.41;5049215;28;20480;-60
2022/11/07 02:14:05;;;;;;;10.05;5.07;;;;;;;10.15;97.49;100709.09;5033884;28;20040;-60
2022/11/07 02:16:34;;;;;;;11.15;4.82;;;;;;;10.13;97.17;100716.28;5022023;28;20037;-60
2022/11/07 02:19:00;;;;;;;9.88;4.60;;;;;;;10.12;97.40;100707.47;5047540;28;20029;-60
2022/11/07 02:21:44;;;;;;;14.43;5.18;;;;;;;10.14;97.72;100704.69;5044807;28;20082;-60
2022/11/07 02:24:16;;;;;;;11.68;4.78;;;;;;;10.11;97.47;100713.72;5036170;28;20025;-60
2022/11/07 02:26:42;;;;;;;12.77;5.10;;;;;;;10.10;97.45;100705.84;5047006;28;20082;-60
2022/11/07 02:29:11;;;;;;;11.02;4.70;;;;;;;10.12;97.76;100706.63;5051062;28;20114;-60
2022/11/07 02:31:37;;;;;;;9.20;4.57;;;;;;;10.11;97.44;100713.72;5057254;28;20053;-60
2022/11/07 02:34:02;;;;;;;7.65;4.90;;;;;;;10.12;97.65;100702.16;5051774;28;20056;-60
2022/11/07 02:36:30;;;;;;;13.15;5.05;;;;;;;10.14;97.60;100713.53;5052052;28;20044;-60
2022/11/07 02:38:57;;;;;;;13.50;4.80;;;;;;;10.10;97.91;100706.72;5056967;28;20055;-61
2022/11/07 02:41:27;;;;;;;11.77;5.28;;;;;;;10.15;97.93;100709.09;5039763;28;20112;-61
2022/11/07 02:44:00;;;;;;;15.18;5.07;;;;;;;10.15;97.83;100715.25;5042306;28;20500;-60
2022/11/07 02:46:27;;;;;;;12.68;4.88;;;;;;;10.14;98.05;100702.88;5042556;28;20055;-60
2022/11/07 02:49:00;;;;;;;13.65;5.43;;;;;;;10.17;97.92;100704.50;5055682;28;20443;-60
2022/11/07 02:51:25;;;;;;;10.15;5.07;;;;;;;10.10;98.05;100698.72;5056872;28;20029;-60
2022/11/07 02:53:52;;;;;;;13.55;4.70;;;;;;;10.13;98.06;100708.31;5053850;28;20056;-60
2022/11/07 02:56:18;;;;;;;12.65;4.35;;;;;;;10.13;97.90;100710.97;5046840;28;20051;-60
2022/11/07 02:58:44;;;;;;;12.82;5.05;;;;;;;10.16;97.88;100711.63;5056986;28;20470;-60
2022/11/07 03:01:11;;;;;;;20.52;5.13;;;;;;;10.13;98.47;100697.69;5056919;28;20108;-60
2022/11/07 03:03:40;;;;;;;15.02;5.47;;;;;;;10.13;98.12;100697.69;5056586;28;20029;-60
2022/11/07 03:06:10;;;;;;;8.93;4.40;;;;;;;10.11;98.45;100696.94;5041548;28;20025;-60
2022/11/07 03:08:36;;;;;;;11.32;4.82;;;;;;;10.09;98.62;100699.69;5038473;28;20032;-60
2022/11/07 03:11:02;;;;;;;14.68;6.03;;;;;;;10.08;98.33;100697.97;5047447;28;20033;-60
2022/11/07 03:13:28;;;;;;;15.05;4.97;;;;;;;10.08;98.58;100697.13;5052403;28;20082;-60
2022/11/07 03:15:54;;;;;;;12.18;4.57;;;;;;;10.08;98.55;100700.63;5050033;28;20443;-60
2022/11/07 03:18:21;;;;;;;11.70;4.90;;;;;;;10.11;98.37;100716.38;5036350;28;20026;-60
2022/11/07 03:20:46;;;;;;;15.85;4.95;;;;;;;10.10;98.50;100708.50;5043511;28;20031;-60
2022/11/07 03:23:11;;;;;;;16.92;5.28;;;;;;;10.09;98.59;100702.34;5042868;28;20124;-60
2022/11/07 03:25:42;;;;;;;13.98;4.78;;;;;;;10.11;98.79;100708.41;5056075;28;20029;-60
2022/11/07 03:28:07;;;;;;;13.18;4.82;;;;;;;10.08;98.58;100697.97;5048140;28;20065;-60
2022/11/07 03:30:33;;;;;;;12.77;4.28;;;;;;;10.12;98.91;100710.13;5026294;28;20040;-60
2022/11/07 03:33:00;;;;;;;13.85;4.55;;;;;;;10.15;98.70;100695.81;5037125;28;20045;-60
2022/11/07 03:35:26;;;;;;;10.98;4.72;;;;;;;10.16;98.67;100697.50;5036355;28;20025;-60
2022/11/07 03:37:54;;;;;;;16.73;5.35;;;;;;;10.20;98.61;100701.66;5038026;28;20041;-60
2022/11/07 03:40:19;;;;;;;16.27;4.80;;;;;;;10.21;98.63;100706.88;5034457;28;20473;-60
2022/11/07 03:42:45;;;;;;;10.57;4.00;;;;;;;10.23;98.28;100710.31;5037524;28;20123;-60
2022/11/07 03:45:13;;;;;;;12.70;4.32;;;;;;;10.27;98.05;100708.34;5052776;28;20098;-60
2022/11/07 03:47:40;;;;;;;18.25;5.18;;;;;;;10.27;97.99;100705.66;5051161;28;20033;-60
2022/11/07 03:50:08;;;;;;;16.02;4.45;;;;;;;10.28;98.01;100709.19;5034616;28;20037;-60
2022/11/07 03:52:33;;;;;;;15.05;4.72;;;;;;;10.29;97.85;100705.56;5035037;28;20021;-60
2022/11/07 03:54:59;;;;;;;12.07;4.40;;;;;;;10.31;98.16;100709.81;5052607;28;20041;-60
2022/11/07 03:57:26;;;;;;;14.13;4.20;;;;;;;10.32;97.84;100711.53;5051157;28;20447;-60
2022/11/07 03:59:54;;;;;;;11.70;4.57;;;;;;;10.35;97.80;100703.38;5031946;28;20124;-60
2022/11/07 04:02:21;;;;;;;18.15;4.68;;;;;;;10.34;97.67;100701.66;5032408;28;20037;-60
2022/11/07 04:04:47;;;;;;;14.57;4.60;;;;;;;10.36;97.55;100705.06;5053698;28;20465;-60
2022/11/07 04:07:12;;;;;;;13.88;4.50;;;;;;;10.35;97.63;100694.53;5033871;28;20048;-60
2022/11/07 04:09:38;;;;;;;15.13;4.68;;;;;;;10.37;97.11;100703.25;5033106;28;20041;-60
2022/11/07 04:17:32;;;;;;;21.25;4.43;;;;;;;10.38;97.23;100704.97;5034190;28;20122;-60
2022/11/07 04:19:59;;;;;;;15.65;4.18;;;;;;;10.40;96.82;100708.38;5018834;28;20030;-60
2022/11/07 04:22:25;;;;;;;13.82;4.10;;;;;;;10.37;96.67;100709.44;5048158;28;20041;-60
2022/11/07 04:24:53;;;;;;;15.55;4.35;;;;;;;10.36;97.45;100704.22;5033427;28;20029;-60
2022/11/07 04:30:19;;;;;;;16.80;4.97;;;;;;;10.37;97.08;100701.47;5033206;28;20044;-60
2022/11/07 04:32:55;;;;;;;18.65;5.18;;;;;;;10.34;97.10;100712.28;5033186;28;20029;-60
2022/11/07 04:35:23;;;;;;;14.77;4.55;;;;;;;10.39;96.63;100715.50;5035525;28;20033;-60
2022/11/07 04:37:49;;;;;;;16.75;4.68;;;;;;;10.32;96.62;100714.19;5041496;28;20021;-60
2022/11/07 04:40:18;;;;;;;14.57;4.75;;;;;;;10.30;96.83;100716.09;5052579;28;20025;-60
2022/11/07 04:42:47;;;;;;;16.08;5.07;;;;;;;10.34;96.51;100716.75;5050594;28;20037;-60
2022/11/07 04:45:13;;;;;;;16.85;4.57;;;;;;;10.30;96.77;100710.78;5049979;28;20071;-60
2022/11/07 04:47:39;;;;;;;12.52;4.25;;;;;;;10.30;96.82;100717.91;5046627;28;20052;-60
2022/11/07 04:50:07;;;;;;;15.45;4.53;;;;;;;10.30;96.96;100716.09;5053190;28;20017;-60
2022/11/07 04:52:39;;;;;;;18.77;4.93;;;;;;;10.28;97.18;100723.31;5040970;28;20025;-60
2022/11/07 04:55:15;;;;;;;18.55;4.75;;;;;;;10.31;97.13;100724.94;5051448;28;20021;-60
2022/11/07 04:57:40;;;;;;;13.23;4.53;;;;;;;10.34;96.70;100727.38;5037044;28;20480;-60
2022/11/07 05:00:06;;;;;;;16.33;4.10;;;;;;;10.36;96.54;100723.69;5046393;28;20040;-60
2022/11/07 05:02:35;;;;;;;18.17;4.38;;;;;;;10.35;96.91;100718.44;5051487;28;20094;-60
2022/11/07 05:05:03;;;;;;;19.13;4.80;;;;;;;10.41;96.04;100721.59;5052613;28;20438;-60
2022/11/07 05:07:28;;;;;;;19.40;6.22;;;;;;;10.38;96.45;100723.56;5037319;28;20299;-60
2022/11/07 05:09:53;;;;;;;18.25;5.50;;;;;;;10.37;96.25;100722.72;5050575;28;20029;-60
2022/11/07 05:12:21;;;;;;;11.48;4.57;;;;;;;10.37;96.43;100720.06;5047562;28;20045;-60
2022/11/07 05:14:47;;;;;;;16.60;5.15;;;;;;;10.36;96.31;100726.34;5038604;28;20104;-60
2022/11/07 05:17:14;;;;;;;16.75;4.68;;;;;;;10.35;96.05;100721.09;5035707;28;20440;-60
2022/11/07 05:19:42;;;;;;;15.60;4.35;;;;;;;10.39;96.09;100727.97;5035587;28;20484;-61
2022/11/07 05:25:00;;;;;;;18.08;5.20;;;;;;;10.38;95.78;100732.44;5035718;28;20079;-60
2022/11/07 05:27:26;;;;;;;20.35;5.05;;;;;;;10.39;95.62;100727.97;5046324;28;20118;-60
2022/11/07 05:29:51;;;;;;;13.48;4.38;;;;;;;10.41;95.62;100729.56;5030715;28;20037;-60
2022/11/07 05:32:17;;;;;;;14.15;4.38;;;;;;;10.41;95.53;100726.03;5033010;28;20116;-60
2022/11/07 05:34:45;;;;;;;17.10;5.32;;;;;;;10.41;95.51;100732.22;5030794;28;20116;-61
2022/11/07 05:37:13;;;;;;;17.45;4.63;;;;;;;10.46;95.55;100740.75;5031503;28;20522;-60
2022/11/07 05:39:42;;;;;;;20.65;4.82;;;;;;;10.42;95.38;100727.75;5034713;28;20040;-60
2022/11/07 05:42:07;;;;;;;15.45;4.65;;;;;;;10.49;95.49;100736.19;5050557;28;20033;-61
2022/11/07 05:44:32;;;;;;;13.25;4.18;;;;;;;10.52;94.91;100726.19;5035400;28;20037;-60
2022/11/07 05:46:58;;;;;;;15.32;4.60;;;;;;;10.50;95.37;100729.91;5040732;28;20132;-60
2022/11/07 05:49:26;;;;;;;15.50;4.50;;;;;;;10.49;95.07;100734.38;5033324;28;20025;-60
2022/11/07 05:51:52;;;;;;;16.30;4.18;;;;;;;10.50;95.14;100733.44;5050825;28;20098;-60
2022/11/07 05:54:19;;;;;;;19.40;4.93;;;;;;;10.49;95.08;100729.06;5021789;28;20037;-60
2022/11/07 05:56:45;;;;;;;18.23;4.72;;;;;;;10.51;94.97;100740.47;5043439;28;20033;-60
2022/11/07 05:59:11;;;;;;;15.23;4.35;;;;;;;10.48;95.33;100734.50;5033515;28;20086;-60
2022/11/07 06:01:36;;;;;;;18.73;4.97;;;;;;;10.54;94.71;100734.09;5040141;28;20041;-60
2022/11/07 06:04:03;;;;;;;14.77;4.65;;;;;;;10.57;94.73;100740.06;5034150;28;20095;-60
2022/11/07 06:06:30;;;;;;;20.50;4.95;;;;;;;10.57;94.80;100726.75;5047810;28;20075;-60
2022/11/07 06:08:58;;;;;;;16.98;5.18;;;;;;;10.59;94.78;100737.28;5050305;28;20103;-60
2022/11/07 06:11:24;;;;;;;14.15;4.75;;;;;;;10.59;94.49;100727.53;5040395;28;20033;-60
2022/11/07 06:13:49;;;;;;;13.93;4.15;;;;;;;10.61;94.80;100736.22;5037867;28;20100;-60
2022/11/07 06:16:15;;;;;;;16.90;5.10;;;;;;;10.62;95.06;100724.66;5049712;28;20119;-61
2022/11/07 06:18:40;;;;;;;17.58;4.82;;;;;;;10.63;94.98;100737.00;5033130;28;20021;-60
2022/11/07 06:21:06;;;;;;;20.42;4.78;;;;;;;10.67;94.38;100737.63;5013846;28;20037;-60
2022/11/07 06:23:34;;;;;;;20.27;5.13;;;;;;;10.63;94.54;100733.50;5029849;28;20538;-61
2022/11/07 06:26:02;;;;;;;16.65;5.10;;;;;;;10.65;94.78;100731.59;5045522;28;20033;-60
2022/11/07 06:28:27;;;;;;;13.27;4.53;;;;;;;10.63;94.99;100738.81;5043184;28;20057;-60
2022/11/07 06:30:53;;;;;;;20.75;5.07;;;;;;;10.66;94.79;100747.44;5047180;28;20044;-61
2022/11/07 06:33:19;;;;;;;15.60;4.50;;;;;;;10.67;95.11;100749.13;5040995;28;20033;-60
2022/11/07 06:35:44;;;;;;;12.73;4.32;;;;;;;10.70;94.62;100742.75;5050091;28;20468;-60
2022/11/07 06:38:12;;;;;;;16.45;5.35;;;;;;;10.72;94.49;100751.50;5035140;28;20116;-60
2022/11/07 06:40:40;;;;;;;16.85;4.43;;;;;;;10.62;94.11;100729.97;5030955;28;20029;-60
2022/11/07 06:43:16;;;;;;;16.10;4.53;;;;;;;10.74;94.31;100749.59;5046596;28;20061;-60
2022/11/07 06:45:43;;;;;;;15.27;4.72;;;;;;;10.77;94.18;100751.22;5032307;28;20028;-60
2022/11/07 06:48:09;;;;;;;15.38;4.85;;;;;;;10.80;93.93;100765.16;5029735;28;20488;-60
2022/11/07 06:50:35;;;;;;;22.20;4.75;;;;;;;10.78;94.42;100752.91;5031413;28;20144;-60
2022/11/07 06:53:06;;;;;;;19.13;4.85;;;;;;;10.82;94.26;100765.06;5034254;28;20029;-60
2022/11/07 06:55:33;;;;;;;18.85;4.88;;;;;;;10.85;94.34;100770.16;5048391;28;20100;-60
2022/11/07 06:58:00;;;;;;;17.70;4.72;;;;;;;10.82;94.22;100768.56;5040701;28;20396;-60
2022/11/07 07:00:29;;;;;;;23.63;4.85;;;;;;;10.82;94.14;100771.22;5031060;28;20427;-60
2022/11/07 07:02:54;;;;;;;19.77;5.03;;;;;;;10.86;94.65;100775.41;5043174;28;20420;-60
2022/11/07 07:05:22;;;;;;;15.05;4.82;;;;;;;10.89;94.37;100775.19;5036777;28;20037;-61
2022/11/07 07:07:48;;;;;;;18.40;5.10;;;;;;;10.92;94.20;100771.50;5020347;28;20132;-60
2022/11/07 07:10:13;;;;;;;16.55;4.70;;;;;;;10.94;94.09;100774.88;5030673;28;20120;-61
2022/11/07 07:12:39;;;;;;;14.60;5.47;;;;;;;10.97;93.82;100788.00;5015015;28;20120;-60
2022/11/07 07:15:06;;;;;;;21.80;5.28;;;;;;;10.97;94.21;100781.81;5048818;28;20025;-60
2022/11/07 07:17:33;;;;;;;14.57;4.93;;;;;;;10.99;94.02;100788.75;5051351;28;20044;-60
2022/11/07 07:20:01;;;;;;;16.38;5.60;;;;;;;10.98;94.13;100786.19;5056682;28;20076;-60
2022/11/07 07:22:26;;;;;;;22.60;4.82;;;;;;;10.98;94.37;100795.03;5047307;28;20503;-60
2022/11/07 07:24:52;;;;;;;18.52;4.93;;;;;;;11.02;93.94;100796.53;5054206;28;20036;-60
2022/11/07 07:27:19;;;;;;;19.48;4.65;;;;;;;11.02;93.94;100795.69;5034789;28;20140;-60
2022/11/07 07:29:45;;;;;;;15.18;4.78;;;;;;;11.07;93.73;100798.91;5040355;28;20492;-60
2022/11/07 07:32:11;;;;;;;19.08;4.55;;;;;;;11.03;93.99;100792.94;5053298;28;20028;-60
2022/11/07 07:34:38;;;;;;;21.05;4.95;;;;;;;11.11;93.62;100797.72;5041518;28;20030;-60
2022/11/07 07:37:04;;;;;;;18.67;5.35;;;;;;;11.14;93.45;100797.53;5033403;28;20033;-60
2022/11/07 07:39:30;;;;;;;18.30;5.30;;;;;;;11.20;93.68;100813.09;5034017;28;20508;-60
2022/11/07 07:41:55;;;;;;;17.35;4.75;;;;;;;11.23;93.51;100810.22;5030020;28;20457;-60
2022/11/07 07:44:21;;;;;;;14.52;4.57;;;;;;;11.24;93.56;100803.97;5049560;28;20523;-61
2022/11/07 07:46:46;;;;;;;19.05;5.45;;;;;;;11.26;93.63;100819.81;5054412;28;20113;-60
2022/11/07 07:49:12;;;;;;;18.08;5.18;;;;;;;11.32;93.48;100819.41;5054174;28;20028;-60
2022/11/07 07:51:41;;;;;;;19.05;4.88;;;;;;;11.32;93.90;100820.28;5046083;28;20384;-60
2022/11/07 07:54:07;;;;;;;22.23;5.15;;;;;;;11.34;93.73;100828.16;5040684;28;20056;-60
2022/11/07 07:56:35;;;;;;;14.77;4.60;;;;;;;11.33;93.93;100821.97;5053366;28;20468;-60
2022/11/07 07:59:03;;;;;;;13.50;4.63;;;;;;;11.39;93.91;100838.50;5035083;28;20128;-60
2022/11/07 08:01:28;;;;;;;15.60;4.88;;;;;;;11.48;93.63;100824.56;5040095;28;20630;-60
2022/11/07 08:03:53;;;;;;;16.08;4.78;;;;;;;11.53;93.64;100833.97;5050965;28;20037;-60
2022/11/07 08:06:21;;;;;;;13.75;4.30;;;;;;;11.56;93.90;100835.56;5051576;28;20483;-60
2022/11/07 08:08:47;;;;;;;16.10;4.82;;;;;;;11.58;93.62;100829.16;5037072;28;20029;-61
2022/11/07 08:11:13;;;;;;;21.52;5.10;;;;;;;11.63;93.36;100834.19;5041732;28;20033;-60
2022/11/07 08:13:41;;;;;;;17.25;5.15;;;;;;;11.60;93.92;100829.06;5032599;28;20425;-61
2022/11/07 08:16:06;;;;;;;18.73;4.55;;;;;;;11.65;93.66;100826.97;5032611;28;20128;-60
2022/11/07 08:18:35;;;;;;;17.70;5.13;;;;;;;11.70;93.38;100823.97;5033410;28;20119;-60
2022/11/07 08:21:01;;;;;;;19.30;4.93;;;;;;;11.71;93.30;100813.22;5042767;28;20033;-60
2022/11/07 08:23:27;;;;;;;18.50;4.65;;;;;;;11.78;93.04;100842.94;5045315;28;20122;-60
2022/11/07 08:25:55;;;;;;;17.10;4.47;;;;;;;11.79;93.21;100837.53;5063061;28;20025;-60
2022/11/07 08:28:23;;;;;;;14.63;4.30;;;;;;;11.79;92.95;100839.31;5036524;28;20061;-60
2022/11/07 08:30:59;;;;;;;19.75;4.60;;;;;;;11.77;93.19;100833.25;5041213;28;20041;-60
2022/11/07 08:33:24;;;;;;;18.52;4.70;;;;;;;11.73;93.40;100837.91;5057193;28;20036;-60
2022/11/07 08:35:50;;;;;;;17.13;4.68;;;;;;;11.71;93.29;100842.53;5052727;28;20017;-60
2022/11/07 08:38:17;;;;;;;13.63;4.72;;;;;;;11.72;93.42;100843.38;5048819;28;20381;-60
2022/11/07 08:40:46;;;;;;;17.08;5.00;;;;;;;11.75;93.34;100843.16;5051515;28;20029;-60
2022/11/07 08:43:11;;;;;;;15.13;4.43;;;;;;;11.79;93.44;100849.97;5034802;28;20111;-60
2022/11/07 08:45:37;;;;;;;21.05;4.78;;;;;;;11.81;93.20;100846.25;5045943;28;20557;-60
2022/11/07 08:48:02;;;;;;;16.42;4.78;;;;;;;11.90;92.41;100858.13;5038030;28;20495;-60
2022/11/07 08:50:28;;;;;;;15.00;4.22;;;;;;;11.95;92.54;100861.34;5051037;28;20126;-60
2022/11/07 08:52:54;;;;;;;14.77;4.85;;;;;;;11.98;92.45;100861.13;5031015;28;20420;-60
2022/11/07 08:55:19;;;;;;;14.35;3.85;;;;;;;12.03;92.50;100859.00;5048890;28;20036;-60
2022/11/07 08:57:44;;;;;;;13.35;4.20;;;;;;;12.05;92.27;100870.41;5050674;28;20036;-60
2022/11/07 09:00:10;;;;;;;17.70;4.38;;;;;;;12.07;92.30;100867.66;5046235;28;20033;-61
2022/11/07 09:02:36;;;;;;;10.30;3.85;;;;;;;12.09;92.04;100873.72;5043741;28;20036;-60
2022/11/07 09:05:02;;;;;;;14.25;4.30;;;;;;;12.09;91.85;100881.72;5051605;28;20231;-60
2022/11/07 09:07:27;;;;;;;14.40;4.47;;;;;;;12.11;92.17;100878.94;5019884;28;20487;-60
2022/11/07 09:09:53;;;;;;;15.45;4.28;;;;;;;12.11;92.07;100887.78;5050521;28;20484;-60
2022/11/07 09:12:19;;;;;;;16.92;4.15;;;;;;;12.12;91.87;100886.84;5051830;28;20434;-60
2022/11/07 09:14:44;;;;;;;13.77;4.57;;;;;;;12.11;92.10;100892.28;5040427;28;20083;-60
2022/11/07 09:17:10;;;;;;;15.75;4.60;;;;;;;12.13;91.68;100890.38;5031867;28;20425;-60
2022/11/07 09:19:36;;;;;;;16.13;4.35;;;;;;;12.14;92.34;100878.72;5034561;28;20051;-60
2022/11/07 09:22:01;;;;;;;18.52;4.97;;;;;;;12.11;91.83;100881.59;5032954;28;20124;-60
2022/11/07 09:24:26;;;;;;;14.82;4.93;;;;;;;12.17;92.13;100898.03;5032952;28;20736;-60
2022/11/07 09:26:54;;;;;;;14.80;4.30;;;;;;;12.18;91.89;100901.56;5014862;28;20500;-60
2022/11/07 09:29:25;;;;;;;16.25;4.55;;;;;;;12.22;91.81;100901.25;5030865;28;20560;-61
2022/11/07 09:31:50;;;;;;;13.05;4.70;;;;;;;12.23;92.36;100894.09;5032527;28;20057;-60
2022/11/07 09:34:15;;;;;;;15.30;4.28;;;;;;;12.20;91.43;100892.47;5027067;28;20068;-60
2022/11/07 09:36:43;;;;;;;14.98;4.40;;;;;;;12.22;92.09;100909.25;5050664;28;20040;-61
2022/11/07 09:39:09;;;;;;;17.63;4.28;;;;;;;12.26;91.83;100900.09;5050041;28;20029;-61
2022/11/07 09:41:55;;;;;;;19.20;4.47;;;;;;;12.32;91.84;100897.94;5051686;28;20102;-60
2022/11/07 09:44:44;;;;;;;15.60;5.05;;;;;;;12.42;91.13;100907.00;5051913;28;20033;-60
2022/11/07 09:47:09;;;;;;;12.50;4.43;;;;;;;12.38;91.23;100901.03;5032616;28;20039;-60
2022/11/07 09:49:41;;;;;;;18.00;4.35;;;;;;;12.39;91.36;100899.22;5036176;28;20104;-60
2022/11/07 09:52:21;;;;;;;12.90;3.97;;;;;;;12.43;91.34;100908.72;5052276;28;20033;-60
2022/11/07 09:54:59;;;;;;;14.18;4.05;;;;;;;12.44;91.28;100908.63;5051608;28;20032;-60
2022/11/07 09:57:28;;;;;;;13.45;4.00;;;;;;;12.46;90.73;100901.34;5051815;28;20171;-60
2022/11/07 10:00:02;;;;;;;17.13;4.05;;;;;;;12.50;91.10;100904.66;5049865;28;20147;-60
2022/11/07 10:02:37;;;;;;;14.13;3.90;;;;;;;12.56;91.16;100906.91;5050978;28;20448;-61
2022/11/07 10:05:03;;;;;;;17.73;4.38;;;;;;;12.61;90.62;100909.22;5051493;28;20031;-60
2022/11/07 10:07:54;;;;;;;15.45;4.28;;;;;;;12.75;90.71;100913.59;5051426;28;20029;-60
2022/11/07 10:11:01;;;;;;;18.55;4.95;;;;;;;12.73;89.57;100908.34;5048418;28;20112;-60
2022/11/07 10:13:58;;;;;;;16.25;4.80;;;;;;;12.70;89.92;100912.09;5044779;28;20028;-61
2022/11/07 10:16:31;;;;;;;14.52;4.38;;;;;;;12.73;89.11;100911.03;5050126;28;20099;-60
2022/11/07 10:19:22;;;;;;;19.45;4.40;;;;;;;12.75;89.16;100916.25;5051546;28;20025;-61
2022/11/07 10:22:03;;;;;;;16.27;4.30;;;;;;;12.81;88.62;100921.16;5030915;28;20388;-61
2022/11/07 10:24:35;;;;;;;13.70;4.43;;;;;;;12.89;88.61;100916.97;5042222;28;20043;-60
2022/11/07 10:27:06;;;;;;;14.30;4.95;;;;;;;13.01;87.76;100925.09;5042109;28;20446;-60
2022/11/07 10:29:43;;;;;;;11.45;3.83;;;;;;;13.04;87.26;100916.84;5040991;28;20040;-60
2022/11/07 10:32:30;;;;;;;15.10;4.22;;;;;;;13.11;87.22;100915.44;5043886;28;20036;-60
2022/11/07 10:35:23;;;;;;;13.32;3.92;;;;;;;13.12;87.51;100925.16;5035547;28;20044;-60
2022/11/07 10:38:00;;;;;;;14.55;4.38;;;;;;;13.17;86.81;100928.31;5047540;28;20021;-61
2022/11/07 10:40:34;;;;;;;15.70;4.88;;;;;;;13.21;85.60;100931.63;5049113;28;20025;-60
2022/11/07 10:43:04;;;;;;;19.73;4.75;;;;;;;13.19;85.21;100939.75;5048946;28;20036;-60
2022/11/07 10:45:31;;;;;;;12.40;3.65;;;;;;;13.22;86.49;100941.38;5033857;28;20025;-61
2022/11/07 10:48:02;;;;;;;11.88;3.90;;;;;;;13.32;85.84;100932.56;5039290;28;20032;-61
2022/11/07 10:50:29;;;;;;;16.17;4.50;;;;;;;13.32;85.11;100935.25;5034481;28;20533;-61
2022/11/07 10:53:00;;;;;;;16.58;4.50;;;;;;;13.29;84.52;100939.97;5036089;28;20052;-61
2022/11/07 10:55:26;;;;;;;15.40;3.88;;;;;;;13.27;84.63;100948.13;5042711;28;20033;-61
2022/11/07 10:57:58;;;;;;;16.23;4.55;;;;;;;13.27;84.37;100950.78;5054503;28;20413;-61
2022/11/07 11:00:28;;;;;;;14.77;3.95;;;;;;;13.26;84.37;100950.88;5054474;28;20024;-62
2022/11/07 11:02:57;;;;;;;16.25;4.72;;;;;;;13.26;83.85;100951.72;5054606;28;20020;-61
2022/11/07 11:05:39;;;;;;;14.63;4.43;;;;;;;13.22;84.11;100952.03;5052227;28;20467;-60
2022/11/07 11:08:17;;;;;;;17.27;4.05;;;;;;;13.21;83.53;100947.66;5044950;28;20030;-60
2022/11/07 11:10:43;;;;;;;13.52;4.05;;;;;;;13.18;83.56;100946.09;5044740;28;20199;-61
2022/11/07 11:13:33;;;;;;;16.38;4.32;;;;;;;13.20;84.03;100946.81;5053046;28;20523;-60
2022/11/07 11:16:06;;;;;;;;;;;;;;;13.23;84.55;100940.38;5049999;28;20306;-61
2022/11/07 11:18:35;;;;;;;15.85;4.18;;;;;;;13.20;84.09;100941.47;5054045;28;20014;-60
2022/11/07 11:21:01;;;;;;;13.32;4.18;;;;;;;13.21;83.40;100932.50;5032543;28;20037;-60
2022/11/07 11:23:30;;;;;;;15.20;4.05;;;;;;;13.21;84.37;100924.50;5041453;28;20017;-61
2022/11/07 11:26:06;;;;;;;13.43;3.40;;;;;;;13.26;84.26;100933.03;5051577;28;20120;-61
2022/11/07 11:28:40;;;;;;;15.80;4.57;;;;;;;13.33;83.67;100922.78;5037956;28;20053;-60
2022/11/07 11:31:12;;;;;;;17.67;4.57;;;;;;;13.51;82.71;100934.78;5047040;28;20052;-61
2022/11/07 11:33:46;;;;;;;13.07;3.85;;;;;;;13.68;81.74;100927.28;5047256;28;20017;-61
2022/11/07 11:36:19;;;;;;;20.13;4.80;;;;;;;13.85;80.79;100924.22;5049471;28;20029;-60
2022/11/07 11:38:53;;;;;;;14.25;3.85;;;;;;;13.86;79.62;100926.78;5049050;28;20021;-61
2022/11/07 11:41:53;;;;;;;12.52;3.65;;;;;;;13.82;80.75;100903.06;5045169;28;20028;-60